LDDU/DBV METAR and TAF weather

Enter ICAO airport designator
Station Type Date Time Source
LDDU METAR 2020/09/21 08:30 UTC NOAA

LDDU 210830Z 17009KT 140V200 CAVOK 24/17 Q1017 NOSIG


Station Type Date Time Source
LDDU Decoded METAR 2020/09/21 08:30 UTC NOAA

Dubrovnik / Cilipi, Croatia (LDDU) 42-34N 018-16E 165M
Sep 21, 2020 - 04:30 AM EDT / 2020.09.21 0830 UTC
Wind: from the S (170 degrees) at 10 MPH (9 KT) (direction variable):0
Visibility: greater than 7 mile(s):0
Temperature: 75 F (24 C)
Dew Point: 62 F (17 C)
Relative Humidity: 64%
Pressure (altimeter): 30.03 in. Hg (1017 hPa)
ob: LDDU 210830Z 17009KT 140V200 CAVOK 24/17 Q1017 NOSIG
cycle: 8

Station Type Date Time Source
LDDU TAF 2020/09/21 06:27 UTC NOAA

TAF TAF LDDU 210525Z 2106/2206 11005KT CAVOK TX26/2109Z TN19/2203Z PROB30
TEMPO 2202/2206 TSRA FEW050CB

Example: see airport list